Terminal Aerodrome Forecast
Issued by NWS

Home | Current Version | Previous Version | Text Only | Print | Product List | Glossary On
Versions: 1 2 3 4 5 6 7 8 9 10 11 12 13 14 15 16 17 18 19 20
000
FTUS41 KCAR 232320
TAFFVE
TAF
KFVE 232320Z 2400/2424 19006KT P6SM OVC040
     FM240600 14005KT P6SM OVC015
     FM241200 13008KT P6SM -RA OVC004
     FM241800 14011KT 4SM -DZ BR OVC004=

USA.gov is the U.S. government's official web portal to all federal, state and local government web resources and services.